Time;durP1;ratioP1;P1;durP2;ratioP2;P2;SDS_P1;SDS_P2;PMS_P1;PMS_P2;Temp;Humidity;BMP_temperature;BMP_pressure;BME280_temperature;BME280_humidity;BME280_pressure;Samples;Min_cycle;Max_cycle;Signal;HPM_P1;HPM_P2
2022/12/10 00:01:21;;;;;;;83.55;35.05;;;;;;;7.44;99.56;99002.66;5013744;28;20038;-70
2022/12/10 00:03:46;;;;;;;84.47;36.72;;;;;;;7.65;98.82;99012.34;5004093;28;20041;-70
2022/12/10 00:06:24;;;;;;;77.60;34.45;;;;;;;7.20;100.00;98996.72;4992989;28;20034;-70
2022/12/10 00:08:50;;;;;;;79.55;36.65;;;;;;;7.01;100.00;99011.75;5006306;28;20557;-70
2022/12/10 00:11:17;;;;;;;71.28;32.13;;;;;;;6.92;100.00;99000.56;4994812;28;20034;-70
2022/12/10 00:13:44;;;;;;;80.22;36.17;;;;;;;7.26;100.00;99010.16;4993847;28;20041;-70
2022/12/10 00:16:13;;;;;;;82.10;33.47;;;;;;;7.45;100.00;99009.88;4993978;28;20497;-70
2022/12/10 00:18:39;;;;;;;80.57;35.47;;;;;;;7.44;99.93;99018.56;4995411;28;20026;-70
2022/12/10 00:21:07;;;;;;;82.18;36.30;;;;;;;7.26;100.00;99021.28;5007179;28;20061;-70
2022/12/10 00:23:33;;;;;;;89.53;35.47;;;;;;;7.23;100.00;99012.75;5013203;28;20451;-70
2022/12/10 00:26:10;;;;;;;80.03;37.05;;;;;;;7.35;100.00;99009.38;5012121;28;20022;-70
2022/12/10 00:28:36;;;;;;;89.80;35.80;;;;;;;7.38;100.00;99014.28;5006932;28;20571;-70
2022/12/10 00:31:11;;;;;;;81.20;32.88;;;;;;;7.45;100.00;99017.41;4993637;28;20030;-70
2022/12/10 00:33:37;;;;;;;81.55;35.88;;;;;;;7.34;100.00;99016.06;5000570;28;20103;-70
2022/12/10 00:36:06;;;;;;;85.40;33.53;;;;;;;7.46;100.00;99016.25;5005713;28;20104;-70
2022/12/10 00:38:32;;;;;;;70.15;31.63;;;;;;;7.58;99.51;99013.66;5012563;28;20451;-70
2022/12/10 00:40:58;;;;;;;72.70;30.25;;;;;;;7.49;99.26;99000.88;5013169;28;20105;-70
2022/12/10 00:43:23;;;;;;;74.40;29.55;;;;;;;7.57;98.94;99008.41;5012734;28;20037;-70
2022/12/10 00:45:49;;;;;;;79.03;32.28;;;;;;;7.50;99.28;99002.53;5012753;28;20064;-70
2022/12/10 00:48:14;;;;;;;63.00;29.60;;;;;;;7.59;99.05;99020.03;5012608;28;20484;-70
2022/12/10 00:50:39;;;;;;;72.90;31.20;;;;;;;7.49;99.53;99014.81;5011108;28;20034;-70
2022/12/10 00:53:05;;;;;;;85.32;31.08;;;;;;;7.39;99.92;99007.56;5012544;28;20026;-70
2022/12/10 00:55:30;;;;;;;72.30;31.15;;;;;;;7.41;100.00;99008.88;5005916;28;20025;-70
2022/12/10 00:57:56;;;;;;;73.07;32.78;;;;;;;7.56;99.78;98996.47;5012702;28;20021;-70
2022/12/10 01:00:21;;;;;;;73.13;33.72;;;;;;;7.64;99.17;99003.19;5012736;28;20030;-70
2022/12/10 01:02:47;;;;;;;81.47;31.92;;;;;;;7.73;99.09;99001.22;5012547;28;20026;-70
2022/12/10 01:05:12;;;;;;;69.97;30.40;;;;;;;7.79;98.43;98987.97;5010009;28;20493;-70
2022/12/10 01:07:38;;;;;;;71.85;29.80;;;;;;;7.87;98.03;98972.38;5001391;28;20512;-70
2022/12/10 01:10:03;;;;;;;66.90;28.90;;;;;;;7.93;97.69;98979.41;5003769;28;20113;-70
2022/12/10 01:12:29;;;;;;;63.83;27.33;;;;;;;7.92;97.56;98979.75;5007270;28;20033;-70
2022/12/10 01:14:54;;;;;;;67.30;28.83;;;;;;;7.86;97.77;98991.03;4991558;28;20026;-70
2022/12/10 01:17:21;;;;;;;67.95;30.45;;;;;;;7.76;97.90;98983.03;4992911;28;20026;-70
2022/12/10 01:19:46;;;;;;;62.95;28.52;;;;;;;7.86;97.79;98990.25;5004595;28;20043;-70
2022/12/10 01:22:12;;;;;;;63.85;30.08;;;;;;;7.79;97.78;98985.16;5002824;28;20034;-70
2022/12/10 01:24:37;;;;;;;74.80;30.30;;;;;;;7.83;97.47;98985.31;5008694;28;20033;-70
2022/12/10 01:27:03;;;;;;;65.53;30.38;;;;;;;7.77;97.21;98970.75;5012274;28;20051;-70
2022/12/10 01:29:29;;;;;;;64.32;28.70;;;;;;;7.44;98.09;98974.84;4993252;28;20030;-70
2022/12/10 01:31:56;;;;;;;64.38;27.23;;;;;;;7.05;100.00;98984.91;4993218;28;20033;-70
2022/12/10 01:34:22;;;;;;;68.25;27.77;;;;;;;7.20;100.00;98977.25;4992490;28;20073;-70
2022/12/10 01:36:51;;;;;;;66.00;27.48;;;;;;;7.29;100.00;98959.44;4992467;28;20515;-70
2022/12/10 01:39:18;;;;;;;67.20;26.73;;;;;;;7.52;100.00;98964.84;4992341;28;20411;-70
2022/12/10 01:41:48;;;;;;;63.35;26.73;;;;;;;7.66;100.00;98961.91;5000565;28;20026;-70
2022/12/10 01:44:13;;;;;;;67.25;27.50;;;;;;;7.64;100.00;98967.00;5011117;28;20029;-69
2022/12/10 01:46:41;;;;;;;64.55;26.75;;;;;;;7.64;99.99;98958.63;4992289;28;20026;-70
2022/12/10 01:49:25;;;;;;;61.67;26.73;;;;;;;7.69;100.00;98958.47;4991646;28;20050;-70
2022/12/10 01:51:55;;;;;;;59.97;27.60;;;;;;;7.70;99.56;98960.09;4992139;28;20504;-70
2022/12/10 01:54:29;;;;;;;61.70;26.38;;;;;;;7.59;100.00;98967.13;5008192;28;20100;-70
2022/12/10 01:57:03;;;;;;;65.60;27.42;;;;;;;7.65;100.00;98943.56;5009931;28;20485;-70
2022/12/10 01:59:29;;;;;;;60.92;25.55;;;;;;;7.57;99.70;98959.13;5010445;28;20022;-70
2022/12/10 02:02:13;;;;;;;65.07;26.77;;;;;;;7.48;100.00;98944.41;5004724;28;20038;-70
2022/12/10 02:04:47;;;;;;;66.75;27.48;;;;;;;7.35;100.00;98953.72;4992985;28;20101;-69
2022/12/10 02:07:42;;;;;;;65.00;26.23;;;;;;;7.27;100.00;98955.34;5011640;28;20120;-70
2022/12/10 02:10:19;;;;;;;62.90;26.48;;;;;;;7.48;100.00;98930.47;5007766;28;20041;-70
2022/12/10 02:13:01;;;;;;;63.40;26.55;;;;;;;7.64;100.00;98928.03;5011649;28;20033;-70
2022/12/10 02:15:32;;;;;;;75.65;31.30;;;;;;;7.52;100.00;98925.88;4996192;28;20034;-70
2022/12/10 02:18:07;;;;;;;66.50;29.13;;;;;;;6.77;100.00;98954.59;5011331;28;20030;-70
2022/12/10 02:21:05;;;;;;;74.43;31.05;;;;;;;6.97;100.00;98942.06;5001790;28;20034;-70
2022/12/10 02:23:36;;;;;;;66.25;26.55;;;;;;;7.30;100.00;98940.78;4991082;28;20053;-70
2022/12/10 02:26:27;;;;;;;66.05;27.65;;;;;;;6.87;100.00;98945.94;4991337;28;20110;-70
2022/12/10 02:29:06;;;;;;;72.97;28.33;;;;;;;7.07;100.00;98946.47;4997383;28;20022;-70
2022/12/10 02:31:33;;;;;;;72.22;29.48;;;;;;;6.64;100.00;98944.41;5011332;28;20034;-70
2022/12/10 02:34:02;;;;;;;65.07;25.27;;;;;;;6.57;100.00;98958.75;4992028;28;20030;-70
2022/12/10 02:36:32;;;;;;;72.03;28.67;;;;;;;6.46;100.00;98961.00;5002274;28;20038;-70
2022/12/10 02:39:01;;;;;;;75.68;30.50;;;;;;;6.39;100.00;98938.41;5005014;28;20548;-70
2022/12/10 02:41:38;;;;;;;79.93;30.95;;;;;;;6.58;100.00;98952.88;5006533;28;20529;-70
2022/12/10 02:44:07;;;;;;;68.30;26.83;;;;;;;6.64;100.00;98948.00;5007317;28;20057;-70
2022/12/10 02:46:36;;;;;;;66.68;25.60;;;;;;;6.50;100.00;98955.63;5008188;28;20069;-70
2022/12/10 02:49:05;;;;;;;75.90;26.42;;;;;;;6.53;100.00;98941.09;4991426;28;20421;-70
2022/12/10 02:51:31;;;;;;;67.83;24.97;;;;;;;6.58;100.00;98929.84;4990366;28;20104;-70
2022/12/10 02:54:02;;;;;;;70.40;25.98;;;;;;;6.77;100.00;98923.19;5003544;28;20456;-69
2022/12/10 02:56:43;;;;;;;64.15;24.48;;;;;;;6.97;100.00;98918.97;5011155;28;20485;-70
2022/12/10 02:59:42;;;;;;;59.50;23.45;;;;;;;7.24;100.00;98928.16;5011110;28;20506;-70
2022/12/10 03:02:10;;;;;;;60.90;26.13;;;;;;;7.21;100.00;98939.94;5009524;28;20401;-70
2022/12/10 03:04:51;;;;;;;64.78;25.35;;;;;;;7.26;100.00;98943.41;4995899;28;20088;-70
2022/12/10 03:07:25;;;;;;;65.63;24.77;;;;;;;7.32;100.00;98927.34;5009939;28;20033;-70
2022/12/10 03:10:01;;;;;;;72.70;26.48;;;;;;;7.47;100.00;98931.63;4997078;28;20145;-70
2022/12/10 03:13:00;;;;;;;72.13;29.13;;;;;;;7.37;100.00;98927.22;4991245;28;20030;-70
2022/12/10 03:15:30;;;;;;;65.65;27.63;;;;;;;7.39;100.00;98916.56;4983583;28;20030;-70
2022/12/10 03:17:57;;;;;;;70.50;26.83;;;;;;;7.58;100.00;98912.63;4999265;28;20037;-70
2022/12/10 03:20:24;;;;;;;69.03;25.48;;;;;;;7.69;100.00;98913.91;5009551;28;20038;-70
2022/12/10 03:22:51;;;;;;;85.07;33.33;;;;;;;7.65;100.00;98904.59;4991423;28;20398;-70
2022/12/10 03:25:21;;;;;;;80.13;29.20;;;;;;;7.14;100.00;98907.88;4991051;28;20057;-69
2022/12/10 03:27:49;;;;;;;75.87;31.20;;;;;;;6.97;100.00;98903.13;4997446;28;20058;-70
2022/12/10 03:30:15;;;;;;;73.32;30.45;;;;;;;7.33;100.00;98897.59;5000957;28;20424;-70
2022/12/10 03:32:42;;;;;;;81.25;29.42;;;;;;;7.45;100.00;98906.91;5009561;28;20025;-70
2022/12/10 03:35:08;;;;;;;71.25;28.42;;;;;;;7.53;100.00;98907.25;5009588;28;20101;-70
2022/12/10 03:37:34;;;;;;;85.25;29.10;;;;;;;7.53;100.00;98901.66;5010120;28;20021;-70
2022/12/10 03:40:00;;;;;;;75.65;29.00;;;;;;;7.65;100.00;98903.78;5013427;28;20400;-70
2022/12/10 03:42:25;;;;;;;86.00;31.10;;;;;;;7.45;100.00;98895.78;5014153;28;20109;-70
2022/12/10 03:44:51;;;;;;;71.85;28.63;;;;;;;7.50;100.00;98889.22;4999959;28;20026;-70
2022/12/10 03:47:18;;;;;;;81.53;29.27;;;;;;;7.57;100.00;98888.72;4994448;28;20489;-70
2022/12/10 03:49:44;;;;;;;80.72;28.70;;;;;;;7.37;100.00;98882.69;4994028;28;20050;-69
2022/12/10 03:52:10;;;;;;;87.35;31.65;;;;;;;7.39;100.00;98868.44;5013384;28;20075;-70
2022/12/10 03:54:35;;;;;;;89.63;30.83;;;;;;;7.37;100.00;98881.88;5013607;28;20048;-70
2022/12/10 03:57:01;;;;;;;86.85;30.75;;;;;;;7.47;100.00;98880.72;5013931;28;20450;-70
2022/12/10 03:59:27;;;;;;;85.18;31.20;;;;;;;7.59;100.00;98887.25;5013961;28;20028;-70
2022/12/10 04:01:52;;;;;;;110.82;36.95;;;;;;;7.52;100.00;98900.03;4999556;28;20412;-70
2022/12/10 04:04:18;;;;;;;93.15;33.63;;;;;;;7.52;100.00;98900.03;5006421;28;20022;-69
2022/12/10 04:06:43;;;;;;;107.93;34.78;;;;;;;7.38;100.00;98902.97;4994529;28;20092;-70
2022/12/10 04:09:14;;;;;;;95.53;31.85;;;;;;;7.48;100.00;98891.53;4994151;28;20054;-70
2022/12/10 04:11:40;;;;;;;79.80;30.85;;;;;;;7.56;100.00;98898.22;4996870;28;20545;-70
2022/12/10 04:16:49;;;;;;;83.32;29.25;;;;;;;7.59;100.00;98894.78;5012934;28;20100;-70
2022/12/10 04:19:16;;;;;;;70.25;27.65;;;;;;;7.63;100.00;98887.41;4996190;28;20105;-70
2022/12/10 04:27:24;;;;;;;70.93;29.13;;;;;;;7.45;100.00;98886.63;4997851;28;20113;-70
2022/12/10 04:29:51;;;;;;;84.53;31.58;;;;;;;7.38;100.00;98887.13;5012094;28;20471;-70
2022/12/10 04:32:17;;;;;;;88.80;28.50;;;;;;;7.52;100.00;98900.03;5012027;28;20034;-70
2022/12/10 04:34:43;;;;;;;82.28;28.77;;;;;;;7.51;100.00;98882.50;5012477;28;20095;-69
2022/12/10 04:37:10;;;;;;;72.40;27.92;;;;;;;7.48;100.00;98890.69;5013270;28;20485;-70
2022/12/10 04:39:36;;;;;;;78.85;29.80;;;;;;;7.53;100.00;98885.78;5010935;28;20029;-70
2022/12/10 04:42:02;;;;;;;75.50;29.08;;;;;;;7.35;100.00;98886.94;5010364;28;20030;-70
2022/12/10 04:44:28;;;;;;;74.82;31.85;;;;;;;7.42;100.00;98885.31;5013023;28;20045;-70
2022/12/10 04:46:53;;;;;;;82.70;33.65;;;;;;;7.46;100.00;98885.47;5012963;28;20022;-69
2022/12/10 04:49:19;;;;;;;83.72;34.22;;;;;;;7.25;100.00;98891.69;5012316;28;20049;-70
2022/12/10 04:51:44;;;;;;;70.63;29.20;;;;;;;7.27;100.00;98888.59;5006777;28;20033;-70
2022/12/10 04:54:10;;;;;;;76.70;32.17;;;;;;;7.38;100.00;98881.56;5000704;28;20022;-70
2022/12/10 04:56:36;;;;;;;69.90;26.92;;;;;;;7.12;100.00;98875.97;5012880;28;20021;-70
2022/12/10 04:59:03;;;;;;;86.63;32.00;;;;;;;7.12;100.00;98887.94;5012998;28;20408;-70
2022/12/10 05:01:29;;;;;;;75.07;33.47;;;;;;;6.97;100.00;98892.00;5012781;28;20033;-70
2022/12/10 05:03:58;;;;;;;95.97;36.50;;;;;;;7.17;100.00;98898.06;5011936;28;20459;-70
2022/12/10 05:06:23;;;;;;;86.53;36.40;;;;;;;6.71;100.00;98895.56;5012593;28;20033;-70
2022/12/10 05:08:49;;;;;;;74.85;31.73;;;;;;;7.08;100.00;98909.19;5001434;28;20018;-70
2022/12/10 05:11:20;;;;;;;91.60;34.78;;;;;;;7.31;100.00;98900.69;4994418;28;20026;-71
2022/12/10 05:13:46;;;;;;;81.20;34.78;;;;;;;7.44;100.00;98899.69;4993428;28;20483;-70
2022/12/10 05:16:14;;;;;;;83.90;35.25;;;;;;;7.44;100.00;98898.91;5002230;28;20485;-70
2022/12/10 05:18:40;;;;;;;82.13;31.48;;;;;;;7.54;100.00;98897.75;5001744;28;20416;-70
2022/12/10 05:21:10;;;;;;;80.93;37.47;;;;;;;7.48;100.00;98896.25;4995057;28;20057;-71
2022/12/10 05:23:37;;;;;;;77.43;32.15;;;;;;;7.54;100.00;98887.44;4991390;28;20410;-70
2022/12/10 05:26:05;;;;;;;82.72;33.08;;;;;;;7.51;100.00;98893.63;4997196;28;20038;-70
2022/12/10 05:28:37;;;;;;;67.03;27.35;;;;;;;7.54;100.00;98883.81;5005072;28;20033;-70
2022/12/10 05:31:03;;;;;;;82.32;33.47;;;;;;;7.52;100.00;98880.56;4991423;28;20030;-70
2022/12/10 05:33:28;;;;;;;77.53;31.63;;;;;;;7.61;100.00;98886.94;4992770;28;20421;-70
2022/12/10 05:35:58;;;;;;;68.45;25.85;;;;;;;7.56;100.00;98878.75;4992450;28;20494;-70
2022/12/10 05:38:24;;;;;;;59.50;26.08;;;;;;;7.57;100.00;98885.94;5007056;28;20033;-71
2022/12/10 05:40:50;;;;;;;68.75;28.38;;;;;;;7.39;100.00;98879.56;5011157;28;20032;-70
2022/12/10 05:43:16;;;;;;;63.85;26.75;;;;;;;7.51;100.00;98874.16;5004406;28;20488;-70
2022/12/10 05:45:42;;;;;;;67.75;29.60;;;;;;;7.59;100.00;98867.78;5004954;28;20116;-70
2022/12/10 05:48:09;;;;;;;74.75;28.30;;;;;;;7.63;100.00;98879.06;5011810;28;20084;-68
2022/12/10 05:50:35;;;;;;;63.85;27.73;;;;;;;7.69;100.00;98872.16;5004829;28;20049;-70
2022/12/10 05:53:00;;;;;;;63.72;27.08;;;;;;;7.72;100.00;98867.91;5007308;28;20035;-71
2022/12/10 05:55:26;;;;;;;58.05;26.88;;;;;;;7.74;100.00;98865.63;5002393;28;20026;-72
2022/12/10 05:57:52;;;;;;;66.68;30.23;;;;;;;7.82;100.00;98855.59;4991993;28;20057;-70
2022/12/10 06:00:18;;;;;;;69.57;28.58;;;;;;;7.62;100.00;98849.59;4999681;28;20114;-73
2022/12/10 06:02:43;;;;;;;64.80;30.80;;;;;;;7.78;100.00;98851.84;5001715;28;20045;-70
2022/12/10 06:05:09;;;;;;;99.28;40.50;;;;;;;7.44;100.00;98860.75;5008160;28;20057;-70
2022/12/10 06:07:35;;;;;;;86.10;36.00;;;;;;;7.62;100.00;98857.94;5004942;28;20104;-70
2022/12/10 06:10:00;;;;;;;67.10;30.20;;;;;;;7.63;100.00;98850.41;5009031;28;20037;-71
2022/12/10 06:12:26;;;;;;;112.40;50.65;;;;;;;7.63;100.00;98848.44;5001057;28;20026;-72
2022/12/10 06:14:51;;;;;;;73.63;32.42;;;;;;;7.73;100.00;98842.53;4991827;28;20045;-71
2022/12/10 06:17:16;;;;;;;73.50;30.73;;;;;;;7.79;100.00;98850.69;4993217;28;20107;-71
2022/12/10 06:19:42;;;;;;;64.53;26.33;;;;;;;7.86;100.00;98862.16;4989274;28;20088;-71
2022/12/10 06:22:07;;;;;;;75.63;30.70;;;;;;;7.86;100.00;98856.59;4989315;28;20030;-71
2022/12/10 06:24:33;;;;;;;68.32;30.00;;;;;;;7.92;99.99;98866.38;5003291;28;20026;-70
2022/12/10 06:26:58;;;;;;;70.18;32.03;;;;;;;7.90;100.00;98882.63;4996461;28;20041;-71
2022/12/10 06:29:24;;;;;;;85.68;38.03;;;;;;;7.99;100.00;98875.06;4991468;28;20089;-73
2022/12/10 06:31:49;;;;;;;118.43;49.42;;;;;;;7.90;100.00;98881.78;4989135;28;20030;-71
2022/12/10 06:34:15;;;;;;;115.15;58.17;;;;;;;8.03;100.00;98869.66;4995518;28;20477;-70
2022/12/10 06:36:40;;;;;;;98.35;49.45;;;;;;;7.91;100.00;98867.53;5003170;28;20144;-70
2022/12/10 06:39:05;;;;;;;96.43;44.13;;;;;;;7.76;100.00;98868.06;4993638;28;20019;-70
2022/12/10 06:41:31;;;;;;;96.38;46.28;;;;;;;7.79;100.00;98856.28;4997330;28;20026;-69
2022/12/10 06:43:58;;;;;;;108.82;56.55;;;;;;;7.85;100.00;98866.91;4987878;28;20033;-71
2022/12/10 06:46:25;;;;;;;105.25;49.38;;;;;;;7.91;100.00;98872.31;4990736;28;20037;-71
2022/12/10 06:48:50;;;;;;;134.27;65.43;;;;;;;7.90;100.00;98879.81;4997102;28;20489;-70
2022/12/10 06:51:17;;;;;;;119.80;54.95;;;;;;;7.80;100.00;98866.25;4997094;28;20033;-71
2022/12/10 06:53:43;;;;;;;105.38;48.50;;;;;;;7.75;100.00;98867.25;5003004;28;20026;-72
2022/12/10 06:56:13;;;;;;;97.63;48.67;;;;;;;7.90;100.00;98860.34;4997080;28;20104;-73
2022/12/10 06:58:40;;;;;;;;;;;;;;;7.57;100.00;98875.63;5002315;28;20061;-72
2022/12/10 07:01:10;;;;;;;72.70;38.20;;;;;;;7.86;100.00;98871.31;4994574;28;21556;-72
2022/12/10 07:03:36;;;;;;;70.80;34.22;;;;;;;7.78;100.00;98874.13;5003071;28;20092;-71
2022/12/10 07:06:04;;;;;;;72.78;35.58;;;;;;;7.93;100.00;98881.94;5005563;28;20638;-71
2022/12/10 07:08:29;;;;;;;71.13;37.30;;;;;;;7.91;100.00;98875.09;4998408;28;20457;-71
2022/12/10 07:10:55;;;;;;;61.53;31.85;;;;;;;7.71;100.00;98874.63;5005422;28;20025;-70
2022/12/10 07:13:21;;;;;;;60.72;28.65;;;;;;;8.01;100.00;98864.41;5002945;28;20128;-71
2022/12/10 07:15:47;;;;;;;52.25;24.67;;;;;;;7.93;100.00;98876.38;5005290;28;20517;-72
2022/12/10 07:18:12;;;;;;;52.05;23.50;;;;;;;7.89;100.00;98858.69;5002726;28;20057;-71
2022/12/10 07:20:38;;;;;;;46.75;24.98;;;;;;;8.01;100.00;98867.19;4993668;28;20452;-75
2022/12/10 07:23:03;;;;;;;53.22;27.73;;;;;;;7.63;100.00;98862.38;4993110;28;20018;-72
2022/12/10 07:25:29;;;;;;;56.90;26.42;;;;;;;7.80;100.00;98855.94;5028020;28;20033;-72
2022/12/10 07:27:55;;;;;;;57.10;27.45;;;;;;;7.71;100.00;98849.56;5011360;28;20037;-69
2022/12/10 07:30:20;;;;;;;51.47;27.02;;;;;;;7.89;100.00;98841.16;5004486;28;20504;-71
2022/12/10 07:32:46;;;;;;;67.63;31.88;;;;;;;7.81;100.00;98842.81;4997528;28;20026;-73
2022/12/10 07:35:11;;;;;;;58.70;28.90;;;;;;;7.76;100.00;98851.38;5009897;28;20234;-71
2022/12/10 07:37:37;;;;;;;76.10;39.78;;;;;;;7.78;100.00;98852.66;4999490;28;20500;-72
2022/12/10 07:40:05;;;;;;;78.15;38.97;;;;;;;7.92;100.00;98848.88;5000146;28;20037;-71
2022/12/10 07:42:31;;;;;;;66.53;30.88;;;;;;;8.03;100.00;98835.41;4997244;28;20067;-71
2022/12/10 07:44:56;;;;;;;62.30;28.27;;;;;;;8.10;100.00;98838.50;4995915;28;20049;-71
2022/12/10 07:47:22;;;;;;;65.53;30.02;;;;;;;8.12;100.00;98848.13;4996231;28;20029;-75
2022/12/10 07:49:47;;;;;;;66.30;30.98;;;;;;;8.11;100.00;98840.91;5007600;28;20053;-71
2022/12/10 07:52:12;;;;;;;66.13;32.85;;;;;;;8.06;100.00;98857.00;5000270;28;20523;-72
2022/12/10 07:54:38;;;;;;;58.28;26.50;;;;;;;8.18;100.00;98848.75;5001115;28;20034;-71
2022/12/10 07:57:03;;;;;;;112.07;60.90;;;;;;;8.22;100.00;98858.09;5006770;28;20026;-72
2022/12/10 07:59:30;;;;;;;59.30;29.52;;;;;;;8.13;100.00;98863.69;5007377;28;20033;-70
2022/12/10 08:01:56;;;;;;;108.30;55.88;;;;;;;8.14;100.00;98858.94;5009690;28;20504;-73
2022/12/10 08:04:21;;;;;;;54.45;24.73;;;;;;;8.08;100.00;98846.34;5009289;28;20108;-72
2022/12/10 08:06:47;;;;;;;50.72;23.65;;;;;;;7.97;100.00;98849.50;4994704;28;20453;-69
2022/12/10 08:09:13;;;;;;;73.68;42.55;;;;;;;8.07;100.00;98847.50;4996657;28;20037;-70
2022/12/10 08:11:38;;;;;;;53.80;27.30;;;;;;;8.09;100.00;98842.44;4999965;28;20033;-71
2022/12/10 08:14:03;;;;;;;51.63;25.52;;;;;;;8.11;100.00;98852.06;5003358;28;20022;-72
2022/12/10 08:16:30;;;;;;;86.57;49.45;;;;;;;8.20;100.00;98860.38;5003804;28;20033;-72
2022/12/10 08:18:58;;;;;;;64.68;32.80;;;;;;;8.22;100.00;98846.97;5005746;28;20034;-68
2022/12/10 08:21:27;;;;;;;74.50;35.42;;;;;;;8.36;100.00;98843.13;5002320;28;20464;-70
2022/12/10 08:23:54;;;;;;;62.20;30.20;;;;;;;8.27;99.52;98830.03;5005257;28;20034;-69
2022/12/10 08:26:22;;;;;;;62.42;28.98;;;;;;;8.31;100.00;98816.25;5008361;28;20052;-69
2022/12/10 08:28:49;;;;;;;61.75;28.75;;;;;;;8.27;99.80;98818.91;5009104;28;20033;-69
2022/12/10 08:31:15;;;;;;;64.70;34.65;;;;;;;8.41;99.46;98820.63;5002786;28;20034;-70
2022/12/10 08:33:41;;;;;;;101.85;55.35;;;;;;;8.27;99.61;98816.09;5007044;28;20025;-69
2022/12/10 08:36:09;;;;;;;83.28;45.25;;;;;;;8.47;99.06;98822.09;5006632;28;20578;-70
2022/12/10 08:38:35;;;;;;;65.97;34.17;;;;;;;8.48;99.73;98831.25;5000751;28;20503;-69
2022/12/10 08:41:19;;;;;;;88.18;45.88;;;;;;;8.53;99.53;98826.31;4993414;28;20026;-69
2022/12/10 08:43:45;;;;;;;84.20;48.47;;;;;;;8.40;99.43;98827.34;4997658;28;20026;-69
2022/12/10 08:46:12;;;;;;;91.57;52.15;;;;;;;8.44;100.00;98828.31;4995888;28;20082;-71
2022/12/10 08:48:38;;;;;;;103.80;56.08;;;;;;;8.71;100.00;98820.66;5002299;28;20050;-71
2022/12/10 08:51:05;;;;;;;72.30;38.20;;;;;;;8.90;100.00;98824.94;5000384;28;20488;-71
2022/12/10 08:53:31;;;;;;;92.65;47.47;;;;;;;9.06;100.00;98816.78;5003544;28;20676;-72
2022/12/10 08:55:56;;;;;;;114.85;56.65;;;;;;;9.17;100.00;98814.38;5005849;28;20080;-72
2022/12/10 08:58:22;;;;;;;73.40;34.75;;;;;;;9.31;100.00;98814.09;5007035;28;20053;-74
2022/12/10 09:00:49;;;;;;;58.33;29.60;;;;;;;9.50;100.00;98824.75;4991035;28;20030;-76
2022/12/10 09:03:15;;;;;;;54.45;29.33;;;;;;;9.50;100.00;98799.63;4990077;28;20074;-75
2022/12/10 09:05:42;;;;;;;53.60;31.40;;;;;;;9.63;99.92;98795.69;4989171;28;20033;-74
2022/12/10 09:08:07;;;;;;;58.10;34.05;;;;;;;9.74;99.87;98796.09;4992878;28;20022;-75
2022/12/10 09:10:36;;;;;;;79.20;46.08;;;;;;;9.77;100.00;98791.78;5000818;28;20100;-70
2022/12/10 09:13:01;;;;;;;1480.15;231.15;;;;;;;9.90;100.00;98771.09;5004408;28;20041;-73
2022/12/10 09:15:26;;;;;;;1395.32;212.15;;;;;;;10.09;100.00;98769.69;5002396;28;20022;-71
2022/12/10 09:17:52;;;;;;;59.42;37.33;;;;;;;9.46;99.89;98773.56;5005696;28;20037;-71
2022/12/10 09:20:17;;;;;;;1544.13;233.80;;;;;;;9.70;100.00;98764.41;4996349;28;20034;-73
2022/12/10 09:22:43;;;;;;;146.50;83.88;;;;;;;10.21;100.00;98755.72;4994276;28;20026;-72
2022/12/10 09:25:14;;;;;;;174.38;94.10;;;;;;;10.33;100.00;98748.50;5005525;28;20026;-71
2022/12/10 09:27:40;;;;;;;69.65;42.83;;;;;;;10.42;100.00;98754.81;5005732;28;20030;-71
2022/12/10 09:30:07;;;;;;;72.20;45.80;;;;;;;10.29;100.00;98742.00;5010652;28;20412;-70
2022/12/10 09:32:33;;;;;;;43.47;24.13;;;;;;;10.15;100.00;98736.75;4995285;28;20405;-72
2022/12/10 09:34:58;;;;;;;50.88;33.20;;;;;;;9.56;97.76;98731.25;5000331;28;20101;-76
2022/12/10 09:37:24;;;;;;;99.30;53.63;;;;;;;10.15;100.00;98729.19;4995768;28;20567;-72
2022/12/10 09:39:49;;;;;;;60.58;33.00;;;;;;;10.15;100.00;98734.78;4996465;28;20021;-74
2022/12/10 09:42:44;;;;;;;78.43;42.40;;;;;;;9.71;96.44;98721.38;4998666;28;20087;-73
2022/12/10 09:45:36;;;;;;;47.55;24.60;;;;;;;9.26;97.49;98714.66;5010048;28;20053;-78
2022/12/10 09:48:05;;;;;;;34.90;19.08;;;;;;;9.05;96.87;98704.38;4996596;28;20033;-80
2022/12/10 09:50:38;;;;;;;66.88;44.53;;;;;;;9.31;100.00;98689.34;5009173;28;20046;-74
2022/12/10 09:53:08;;;;;;;42.90;22.65;;;;;;;9.58;99.45;98691.81;4995413;28;20069;-74
2022/12/10 09:55:40;;;;;;;40.88;23.58;;;;;;;9.31;97.01;98694.91;5010939;28;20026;-74
2022/12/10 09:58:09;;;;;;;67.18;33.63;;;;;;;9.74;98.76;98670.41;4997288;28;20030;-79
2022/12/10 10:00:42;;;;;;;31.87;16.60;;;;;;;9.79;91.98;98695.31;5000785;28;20182;-80
2022/12/10 10:03:14;;;;;;;27.00;14.40;;;;;;;9.91;92.36;98690.88;5021892;28;20040;-76
2022/12/10 10:05:45;;;;;;;28.17;14.10;;;;;;;9.80;92.02;98679.38;4996282;28;20060;-77
2022/12/10 10:08:42;;;;;;;29.52;17.92;;;;;;;10.34;93.34;98683.88;5009793;28;20034;-79
2022/12/10 10:11:28;;;;;;;87.85;49.85;;;;;;;10.95;100.00;98670.88;4995346;28;20049;-75
2022/12/10 10:13:59;;;;;;;40.28;19.95;;;;;;;10.88;93.89;98670.66;4998160;28;20038;-79
2022/12/10 10:16:34;;;;;;;73.50;45.28;;;;;;;10.99;98.86;98668.16;5002356;28;20026;-76
2022/12/10 10:19:11;;;;;;;1182.55;139.38;;;;;;;11.11;96.52;98652.50;5004800;28;20027;-72
2022/12/10 10:21:42;;;;;;;82.80;34.33;;;;;;;11.56;100.00;98626.03;5005622;28;20110;-77
2022/12/10 10:24:15;;;;;;;29.73;15.23;;;;;;;11.17;88.30;98637.88;5001552;28;20444;-73
2022/12/10 10:26:40;;;;;;;25.27;14.27;;;;;;;10.89;87.82;98637.91;5009833;28;20127;-74
2022/12/10 10:29:10;;;;;;;23.75;14.10;;;;;;;10.77;88.17;98628.41;5007898;28;20061;-77
2022/12/10 10:31:39;;;;;;;32.47;15.07;;;;;;;11.00;87.74;98636.22;5007492;28;20069;-74
2022/12/10 10:34:12;;;;;;;27.40;15.02;;;;;;;11.12;86.94;98623.31;5008959;28;20403;-75
2022/12/10 10:36:39;;;;;;;24.00;13.57;;;;;;;11.10;86.92;98623.69;5009418;28;20466;-78
2022/12/10 10:39:16;;;;;;;30.20;17.63;;;;;;;11.01;88.17;98626.66;4997637;28;20030;-75
2022/12/10 10:41:42;;;;;;;28.55;16.20;;;;;;;11.03;86.92;98613.09;5001874;28;20116;-75
2022/12/10 10:44:33;;;;;;;38.70;16.58;;;;;;;11.05;87.19;98607.97;5006807;28;20092;-76
2022/12/10 10:46:59;;;;;;;31.00;17.70;;;;;;;10.64;89.19;98607.25;4999854;28;20037;-74
2022/12/10 10:49:26;;;;;;;31.05;19.80;;;;;;;10.81;89.28;98609.72;5008365;28;20046;-78
2022/12/10 10:51:54;;;;;;;35.42;18.58;;;;;;;10.92;87.59;98614.81;5011302;28;20420;-80
2022/12/10 10:54:42;;;;;;;36.65;19.75;;;;;;;10.85;88.31;98609.00;5007552;28;20033;-74
2022/12/10 10:57:15;;;;;;;47.78;17.00;;;;;;;10.81;88.38;98603.34;5006850;28;20022;-77
2022/12/10 10:59:41;;;;;;;32.33;18.40;;;;;;;10.80;88.49;98605.31;5009595;28;20033;-75
2022/12/10 11:02:20;;;;;;;33.70;17.83;;;;;;;10.59;89.44;98585.97;5005926;28;20547;-75
2022/12/10 11:04:50;;;;;;;40.13;19.00;;;;;;;10.44;90.87;98595.91;5009565;28;20058;-73
2022/12/10 11:07:37;;;;;;;38.83;20.40;;;;;;;10.42;90.86;98572.28;5007329;28;21076;-76
2022/12/10 11:10:18;;;;;;;31.65;20.17;;;;;;;10.24;91.87;98578.16;5008536;28;20532;-71
2022/12/10 11:12:52;;;;;;;50.80;19.65;;;;;;;10.29;92.53;98588.25;5004820;28;20029;-74
2022/12/10 11:15:24;;;;;;;29.10;17.48;;;;;;;10.28;91.88;98593.03;5009777;28;20396;-74
2022/12/10 11:17:54;;;;;;;39.53;22.13;;;;;;;10.35;92.69;98584.03;5002239;28;20057;-72
2022/12/10 11:20:32;;;;;;;33.00;21.45;;;;;;;10.30;92.43;98581.50;5003008;28;20573;-72
2022/12/10 11:23:01;;;;;;;32.83;19.42;;;;;;;10.29;92.52;98588.25;5005624;28;20101;-72
2022/12/10 11:25:52;;;;;;;38.45;19.27;;;;;;;10.38;92.26;98583.34;4993835;28;20095;-72
2022/12/10 11:28:40;;;;;;;33.90;18.33;;;;;;;10.40;91.58;98579.00;4993662;28;20034;-72
2022/12/10 11:31:43;;;;;;;35.17;18.77;;;;;;;10.37;91.96;98565.75;5003969;28;20046;-73
2022/12/10 11:34:21;;;;;;;85.60;49.53;;;;;;;10.36;91.94;98550.16;5005385;28;20425;-73